Time;durP1;ratioP1;P1;durP2;ratioP2;P2;SDS_P1;SDS_P2;PMS_P1;PMS_P2;Temp;Humidity;BMP_temperature;BMP_pressure;BME280_temperature;BME280_humidity;BME280_pressure;Samples;Min_cycle;Max_cycle;Signal;HPM_P1;HPM_P2
2023/10/11 00:02:55;;;;;;;9.85;5.90;;;23.20;99.90;;;;;;6222365;28;83996;-74
2023/10/11 00:05:59;;;;;;;6.75;5.68;;;23.20;99.90;;;;;;6227789;28;84514;-74
2023/10/11 00:09:01;;;;;;;7.75;5.88;;;23.20;99.90;;;;;;6218643;28;84175;-75
2023/10/11 00:12:05;;;;;;;6.53;5.63;;;23.30;99.90;;;;;;6229920;28;82883;-73
2023/10/11 00:15:09;;;;;;;8.23;6.03;;;23.30;99.90;;;;;;6223239;28;83278;-74
2023/10/11 00:18:11;;;;;;;8.38;6.20;;;23.20;99.90;;;;;;6228236;28;83244;-74
2023/10/11 00:21:15;;;;;;;6.90;5.70;;;23.20;99.90;;;;;;6216796;28;83977;-74
2023/10/11 00:24:18;;;;;;;8.05;5.70;;;23.20;99.90;;;;;;6222231;28;83687;-74
2023/10/11 00:27:21;;;;;;;8.15;5.82;;;23.20;99.90;;;;;;6225878;28;84994;-73
2023/10/11 00:30:23;;;;;;;7.90;6.20;;;23.20;99.90;;;;;;6226426;28;83980;-74
2023/10/11 00:33:25;;;;;;;8.00;6.13;;;23.20;99.90;;;;;;6231412;28;84050;-74
2023/10/11 00:36:30;;;;;;;9.45;6.22;;;23.20;99.90;;;;;;6218227;28;84577;-73
2023/10/11 00:39:33;;;;;;;7.57;5.75;;;23.20;99.90;;;;;;6224442;28;82808;-72
2023/10/11 00:42:36;;;;;;;6.72;5.78;;;23.20;99.90;;;;;;6221094;28;83698;-74
2023/10/11 00:45:39;;;;;;;7.82;6.00;;;23.20;99.90;;;;;;6213837;28;84002;-74
2023/10/11 00:48:51;;;;;;;8.50;5.78;;;23.20;99.90;;;;;;6229196;28;83462;-73
2023/10/11 00:51:53;;;;;;;7.18;5.95;;;23.20;99.90;;;;;;6225442;28;84376;-73
2023/10/11 00:54:56;;;;;;;8.65;6.63;;;23.20;99.90;;;;;;6220652;28;84145;-73
2023/10/11 00:58:00;;;;;;;9.05;6.78;;;23.20;99.90;;;;;;6235939;28;84947;-74
2023/10/11 01:01:03;;;;;;;7.00;5.97;;;23.20;99.90;;;;;;6214118;28;85828;-72
2023/10/11 01:04:06;;;;;;;8.00;6.32;;;23.20;99.90;;;;;;6223351;28;83989;-73
2023/10/11 01:07:09;;;;;;;7.88;5.95;;;23.10;99.90;;;;;;6222213;28;83339;-74
2023/10/11 01:10:11;;;;;;;10.07;7.20;;;23.10;99.90;;;;;;6227266;28;83921;-74
2023/10/11 01:13:15;;;;;;;7.68;6.50;;;23.10;99.90;;;;;;6226523;28;84043;-73
2023/10/11 01:16:17;;;;;;;9.23;6.90;;;23.10;99.90;;;;;;6227047;28;84637;-73
2023/10/11 01:19:19;;;;;;;8.18;6.38;;;23.10;99.90;;;;;;6212918;28;83117;-73
2023/10/11 01:22:22;;;;;;;8.10;6.50;;;23.20;99.90;;;;;;6219663;28;84015;-73
2023/10/11 01:25:24;;;;;;;7.95;6.43;;;23.10;99.90;;;;;;6215891;28;83004;-74
2023/10/11 01:28:28;;;;;;;8.25;6.47;;;23.10;99.90;;;;;;6225665;28;83670;-73
2023/10/11 01:31:33;;;;;;;8.88;7.28;;;23.20;99.90;;;;;;6220804;28;84115;-73
2023/10/11 01:34:35;;;;;;;8.00;6.95;;;23.10;99.90;;;;;;6216978;28;84555;-74
2023/10/11 01:37:43;;;;;;;9.85;7.22;;;23.10;99.90;;;;;;6220256;28;83731;-73
2023/10/11 01:40:48;;;;;;;8.45;6.95;;;23.10;99.90;;;;;;6215141;28;84314;-73
2023/10/11 01:43:51;;;;;;;9.65;7.35;;;23.10;99.90;;;;;;6225792;28;84143;-73
2023/10/11 01:46:53;;;;;;;8.50;7.28;;;23.10;99.90;;;;;;6224064;28;84045;-73
2023/10/11 01:49:55;;;;;;;8.88;6.82;;;23.10;99.90;;;;;;6219960;28;83249;-73
2023/10/11 01:52:58;;;;;;;8.88;7.20;;;23.10;99.90;;;;;;6218176;28;82890;-73
2023/10/11 01:56:00;;;;;;;8.05;7.25;;;23.10;99.90;;;;;;6216685;28;84056;-73
2023/10/11 01:59:04;;;;;;;8.18;7.18;;;23.10;99.90;;;;;;6215334;28;84979;-73
2023/10/11 02:02:09;;;;;;;8.25;7.32;;;23.10;99.90;;;;;;6222946;28;85677;-73
2023/10/11 02:05:12;;;;;;;8.63;7.72;;;23.10;99.90;;;;;;6225473;28;84193;-74
2023/10/11 02:08:17;;;;;;;8.63;7.65;;;23.10;99.90;;;;;;6218637;28;83540;-74
2023/10/11 02:11:23;;;;;;;10.02;7.57;;;23.10;99.90;;;;;;6225102;28;84013;-75
2023/10/11 02:14:28;;;;;;;8.73;7.50;;;23.10;99.90;;;;;;6222578;28;83898;-75
2023/10/11 02:17:33;;;;;;;9.07;7.72;;;23.10;99.90;;;;;;6220652;28;89250;-73
2023/10/11 02:20:43;;;;;;;8.23;7.35;;;23.10;99.90;;;;;;6212231;28;88152;-75
2023/10/11 02:23:46;;;;;;;10.20;8.35;;;23.10;99.90;;;;;;6224589;28;89000;-73
2023/10/11 02:26:50;;;;;;;8.35;7.30;;;23.10;99.90;;;;;;6222772;28;89132;-73
2023/10/11 02:29:52;;;;;;;8.57;7.60;;;23.10;99.90;;;;;;6220171;28;90641;-74
2023/10/11 02:32:58;;;;;;;8.98;7.85;;;23.10;99.90;;;;;;6227140;28;88988;-74
2023/10/11 02:36:08;;;;;;;9.27;8.02;;;23.10;99.90;;;;;;6210912;28;89042;-74
2023/10/11 02:39:17;;;;;;;9.05;8.10;;;23.00;99.90;;;;;;6223662;28;89124;-74
2023/10/11 02:42:19;;;;;;;9.65;8.18;;;23.10;99.90;;;;;;6224897;28;89030;-74
2023/10/11 02:45:22;;;;;;;8.77;7.47;;;23.10;99.90;;;;;;6215821;28;89021;-74
2023/10/11 02:48:24;;;;;;;8.57;7.68;;;23.00;99.90;;;;;;6225399;28;88995;-75
2023/10/11 02:51:26;;;;;;;10.45;8.18;;;23.10;99.90;;;;;;6228267;28;88144;-74
2023/10/11 02:54:34;;;;;;;9.90;8.32;;;23.00;99.90;;;;;;6226219;28;89139;-74
2023/10/11 02:57:37;;;;;;;9.25;8.15;;;23.00;99.90;;;;;;6223054;28;88974;-74
2023/10/11 03:00:43;;;;;;;9.55;8.10;;;23.10;99.90;;;;;;6209386;28;88882;-73
2023/10/11 03:03:47;;;;;;;9.93;8.07;;;23.10;99.90;;;;;;6231759;28;89173;-74
2023/10/11 03:06:49;;;;;;;9.90;8.57;;;23.00;99.90;;;;;;6222134;28;88920;-73
2023/10/11 03:09:54;;;;;;;9.50;7.97;;;23.00;99.90;;;;;;6222350;28;89150;-73
2023/10/11 03:12:56;;;;;;;9.90;8.45;;;23.00;99.90;;;;;;6217431;28;89466;-74
2023/10/11 03:16:00;;;;;;;9.07;8.18;;;23.10;99.90;;;;;;6221901;28;89002;-73
2023/10/11 03:19:05;;;;;;;11.07;8.63;;;23.00;99.90;;;;;;6221334;28;89181;-74
2023/10/11 03:22:07;;;;;;;10.30;8.18;;;23.00;99.90;;;;;;6210576;28;88405;-75
2023/10/11 03:25:18;;;;;;;9.75;8.18;;;23.00;99.90;;;;;;6233844;28;89151;-73
2023/10/11 03:28:26;;;;;;;9.43;8.35;;;23.00;99.90;;;;;;6219008;28;89204;-73
2023/10/11 03:31:31;;;;;;;10.65;8.20;;;23.00;99.90;;;;;;6209341;28;89117;-73
2023/10/11 03:34:34;;;;;;;11.32;8.57;;;23.00;99.90;;;;;;6212619;28;91137;-73
2023/10/11 03:37:37;;;;;;;9.63;8.32;;;23.10;99.90;;;;;;6211743;28;88965;-72
2023/10/11 03:40:54;;;;;;;9.88;7.93;;;23.00;99.90;;;;;;6232295;28;89157;-73
2023/10/11 03:44:01;;;;;;;8.45;7.43;;;23.00;99.90;;;;;;6209402;28;91248;-73
2023/10/11 03:47:08;;;;;;;9.43;8.00;;;23.00;99.90;;;;;;6215922;28;89126;-73
2023/10/11 03:50:12;;;;;;;8.50;7.50;;;23.00;99.90;;;;;;6211191;28;88499;-73
2023/10/11 03:53:15;;;;;;;10.18;8.23;;;23.00;99.90;;;;;;6210864;28;87633;-74
2023/10/11 03:56:18;;;;;;;9.55;8.00;;;23.00;99.90;;;;;;6225006;28;88958;-73
2023/10/11 03:59:20;;;;;;;10.90;8.40;;;23.00;99.90;;;;;;6219529;28;88845;-73
2023/10/11 04:02:23;;;;;;;9.00;7.60;;;23.00;99.90;;;;;;6219560;28;89971;-72
2023/10/11 04:05:28;;;;;;;8.68;7.38;;;23.00;99.90;;;;;;6220032;28;87970;-74
2023/10/11 04:08:30;;;;;;;8.65;7.75;;;23.00;99.90;;;;;;6218655;28;89115;-74
2023/10/11 04:11:53;;;;;;;8.45;7.55;;;23.00;99.90;;;;;;6230161;28;89001;-73
2023/10/11 04:14:57;;;;;;;8.80;7.60;;;23.10;99.90;;;;;;6219530;28;89073;-73
2023/10/11 04:18:05;;;;;;;9.27;7.05;;;23.10;99.90;;;;;;6217090;28;89504;-74
2023/10/11 04:21:26;;;;;;;7.45;6.75;;;23.10;99.90;;;;;;6219207;28;88225;-74
2023/10/11 04:24:34;;;;;;;8.25;7.38;;;23.10;99.90;;;;;;6220541;28;88727;-74
2023/10/11 04:27:54;;;;;;;8.85;7.35;;;23.10;99.90;;;;;;6208967;28;89486;-74
2023/10/11 04:31:27;;;;;;;8.20;7.22;;;23.10;99.90;;;;;;6219392;28;89183;-73
2023/10/11 04:34:23;;;;;;;8.98;7.30;;;23.20;99.90;;;;;;6219617;28;89191;-74
2023/10/11 04:37:43;;;;;;;8.95;7.38;;;23.30;99.90;;;;;;6210243;28;89118;-73
2023/10/11 04:40:51;;;;;;;9.55;7.55;;;23.20;99.90;;;;;;6217057;28;87892;-73
2023/10/11 04:44:04;;;;;;;9.48;7.45;;;23.30;99.90;;;;;;6221846;28;88988;-73
2023/10/11 04:47:06;;;;;;;7.95;6.82;;;23.20;99.70;;;;;;6215258;28;89153;-74
2023/10/11 04:50:11;;;;;;;8.38;6.70;;;23.30;99.60;;;;;;6219318;28;89045;-72
2023/10/11 04:53:17;;;;;;;9.10;7.13;;;23.30;99.40;;;;;;6215369;28;89059;-72
2023/10/11 04:59:41;;;;;;;8.18;6.72;;;23.30;99.10;;;;;;6222591;28;88500;-73
2023/10/11 05:02:44;;;;;;;9.45;6.97;;;23.30;98.70;;;;;;6224067;28;89211;-72
2023/10/11 05:05:58;;;;;;;7.93;6.70;;;23.30;98.60;;;;;;6217452;28;90258;-71
2023/10/11 05:09:13;;;;;;;7.60;6.38;;;23.40;98.40;;;;;;6218000;28;89119;-71
2023/10/11 05:12:19;;;;;;;8.77;6.72;;;23.40;98.30;;;;;;6212596;28;88987;-72
2023/10/11 05:15:29;;;;;;;9.25;6.47;;;23.40;98.30;;;;;;6220495;28;87963;-72
2023/10/11 05:18:31;;;;;;;10.35;6.68;;;23.40;98.20;;;;;;6218238;28;89320;-72
2023/10/11 05:21:38;;;;;;;8.10;6.63;;;23.40;98.10;;;;;;6220373;28;89170;-72
2023/10/11 05:25:12;;;;;;;8.20;6.55;;;23.40;98.10;;;;;;6214919;28;88893;-71
2023/10/11 05:31:44;;;;;;;10.77;7.40;;;23.40;97.90;;;;;;6225047;28;87777;-72
2023/10/11 05:35:07;;;;;;;10.05;6.80;;;23.40;97.80;;;;;;6218646;28;88967;-73
2023/10/11 05:51:28;;;;;;;8.63;7.00;;;23.50;97.50;;;;;;6217112;28;87311;-72
2023/10/11 05:54:34;;;;;;;8.07;6.47;;;23.50;97.40;;;;;;6220183;28;89060;-72
2023/10/11 05:57:36;;;;;;;9.15;7.13;;;23.50;97.30;;;;;;6217857;28;88039;-72
2023/10/11 06:00:39;;;;;;;9.18;7.15;;;23.60;97.30;;;;;;6211614;28;88257;-72
2023/10/11 06:03:43;;;;;;;10.10;7.22;;;23.50;97.30;;;;;;6214884;28;90468;-72
2023/10/11 06:06:46;;;;;;;10.20;7.40;;;23.60;97.20;;;;;;6218204;28;89147;-72
2023/10/11 06:09:52;;;;;;;10.05;7.38;;;23.50;97.20;;;;;;6210864;28;88972;-72
2023/10/11 06:12:58;;;;;;;9.27;7.03;;;23.60;97.20;;;;;;6215170;28;89589;-72
2023/10/11 06:16:00;;;;;;;9.40;7.30;;;23.60;97.20;;;;;;6220560;28;89111;-72
2023/10/11 06:19:16;;;;;;;10.45;8.00;;;23.60;97.10;;;;;;6213688;28;88953;-73
2023/10/11 06:22:18;;;;;;;10.07;7.75;;;23.60;97.10;;;;;;6222757;28;89270;-73
2023/10/11 06:25:49;;;;;;;11.10;7.93;;;23.60;97.10;;;;;;6212570;28;89352;-73
2023/10/11 06:28:44;;;;;;;9.50;7.70;;;23.60;97.10;;;;;;6224579;28;88519;-72
2023/10/11 06:31:46;;;;;;;8.43;7.13;;;23.60;97.10;;;;;;6217967;28;88380;-72
2023/10/11 06:34:50;;;;;;;8.75;7.13;;;23.70;97.20;;;;;;6225049;28;89064;-72
2023/10/11 06:37:54;;;;;;;10.18;7.45;;;23.60;97.10;;;;;;6211425;28;88180;-72
2023/10/11 06:41:36;;;;;;;9.05;7.38;;;23.70;97.20;;;;;;6218053;28;90020;-72
2023/10/11 06:44:18;;;;;;;10.85;8.10;;;23.70;97.20;;;;;;6221461;28;88304;-72
2023/10/11 06:47:21;;;;;;;8.68;7.07;;;23.70;97.20;;;;;;6208940;28;89126;-73
2023/10/11 06:50:25;;;;;;;9.98;8.00;;;23.70;97.20;;;;;;6209051;28;89010;-73
2023/10/11 06:53:28;;;;;;;8.50;6.90;;;23.70;97.60;;;;;;6218628;28;89023;-72
2023/10/11 06:56:32;;;;;;;12.52;8.10;;;23.70;97.20;;;;;;6224108;28;89044;-72
2023/10/11 06:59:34;;;;;;;9.75;7.60;;;23.70;97.20;;;;;;6215050;28;88919;-73
2023/10/11 07:02:36;;;;;;;8.52;7.32;;;23.70;97.30;;;;;;6225174;28;88268;-73
2023/10/11 07:05:47;;;;;;;9.15;7.05;;;23.70;97.30;;;;;;6220921;28;89172;-73
2023/10/11 07:08:53;;;;;;;9.38;7.53;;;23.80;97.30;;;;;;6205791;28;89175;-73
2023/10/11 07:12:28;;;;;;;10.45;7.60;;;23.80;97.40;;;;;;6206795;28;90273;-73
2023/10/11 07:15:20;;;;;;;8.77;7.50;;;23.80;97.40;;;;;;6216424;28;88639;-72
2023/10/11 07:18:25;;;;;;;9.27;7.15;;;23.80;97.40;;;;;;6215606;28;89192;-72
2023/10/11 07:21:51;;;;;;;8.80;7.18;;;23.80;97.40;;;;;;6225593;28;89118;-74
2023/10/11 07:24:57;;;;;;;10.80;7.43;;;23.80;97.50;;;;;;6218321;28;89029;-73
2023/10/11 07:28:02;;;;;;;10.20;7.30;;;23.90;97.50;;;;;;6230013;28;89396;-73
2023/10/11 07:31:04;;;;;;;10.20;7.20;;;23.90;97.50;;;;;;6211316;28;87997;-72
2023/10/11 07:34:09;;;;;;;10.15;7.40;;;23.90;97.50;;;;;;6213342;28;88383;-73
2023/10/11 07:37:12;;;;;;;9.75;7.47;;;23.90;97.40;;;;;;6210085;28;88020;-72
2023/10/11 07:40:21;;;;;;;9.88;7.43;;;23.90;97.40;;;;;;6226879;28;89287;-73
2023/10/11 07:43:25;;;;;;;9.40;7.38;;;23.90;97.40;;;;;;6206993;28;90283;-73
2023/10/11 07:46:28;;;;;;;8.05;7.10;;;24.00;97.40;;;;;;6224916;28;88942;-73
2023/10/11 07:49:37;;;;;;;8.75;7.00;;;24.00;97.40;;;;;;6223911;28;89110;-73
2023/10/11 07:52:42;;;;;;;10.20;7.13;;;24.00;97.40;;;;;;6210841;28;87271;-73
2023/10/11 07:55:45;;;;;;;7.53;6.50;;;24.00;97.50;;;;;;6219486;28;89114;-73
2023/10/11 07:58:47;;;;;;;8.02;6.90;;;24.00;97.50;;;;;;6218586;28;89120;-73
2023/10/11 08:01:53;;;;;;;7.85;6.53;;;24.00;97.50;;;;;;6215333;28;88891;-72
2023/10/11 08:04:57;;;;;;;9.23;7.30;;;24.10;97.50;;;;;;6213875;28;88229;-73
2023/10/11 08:08:00;;;;;;;11.35;7.07;;;24.00;97.60;;;;;;6213699;28;89155;-72
2023/10/11 08:11:06;;;;;;;9.10;6.63;;;24.00;97.60;;;;;;6223267;28;88997;-73
2023/10/11 08:14:14;;;;;;;7.75;6.63;;;24.00;97.60;;;;;;6227517;28;90050;-72
2023/10/11 08:17:19;;;;;;;8.77;6.60;;;24.10;97.70;;;;;;6218060;28;88862;-73
2023/10/11 08:20:28;;;;;;;8.13;7.13;;;24.00;97.70;;;;;;6213760;28;89093;-73
2023/10/11 08:23:31;;;;;;;8.02;6.45;;;24.10;97.80;;;;;;6212842;28;87909;-72
2023/10/11 08:26:42;;;;;;;7.70;6.90;;;24.10;97.90;;;;;;6223150;28;88960;-73
2023/10/11 08:29:44;;;;;;;8.85;6.70;;;24.10;97.90;;;;;;6216744;28;89055;-69
2023/10/11 08:32:47;;;;;;;7.40;6.50;;;24.00;98.00;;;;;;6210774;28;89083;-70
2023/10/11 08:35:53;;;;;;;8.13;6.72;;;24.00;98.10;;;;;;6217648;28;87164;-71
2023/10/11 08:38:59;;;;;;;7.15;6.07;;;24.00;98.20;;;;;;6214911;28;88835;-70
2023/10/11 08:42:06;;;;;;;9.60;7.05;;;24.00;98.20;;;;;;6214505;28;89351;-70
2023/10/11 08:45:14;;;;;;;7.60;6.28;;;24.00;98.30;;;;;;6212272;28;90085;-70
2023/10/11 08:48:17;;;;;;;7.57;6.32;;;24.00;98.30;;;;;;6222482;28;89044;-69
2023/10/11 08:51:22;;;;;;;7.85;6.70;;;24.00;98.30;;;;;;6223162;28;87922;-70
2023/10/11 08:54:26;;;;;;;13.77;7.78;;;24.00;98.40;;;;;;6228861;28;88949;-70
2023/10/11 08:57:31;;;;;;;9.20;6.85;;;24.00;98.40;;;;;;6229476;28;88222;-71
2023/10/11 09:00:34;;;;;;;7.70;6.20;;;24.00;98.40;;;;;;6229253;28;89040;-70
2023/10/11 09:03:40;;;;;;;8.25;6.10;;;24.00;98.40;;;;;;6211551;28;88101;-70
2023/10/11 09:06:44;;;;;;;10.27;7.05;;;24.00;98.40;;;;;;6223480;28;88497;-70
2023/10/11 09:09:50;;;;;;;8.88;6.38;;;24.00;98.30;;;;;;6229883;28;89023;-71
2023/10/11 09:12:56;;;;;;;7.75;6.18;;;24.10;98.30;;;;;;6228290;28;89181;-71
2023/10/11 09:15:57;;;;;;;6.72;5.75;;;24.10;98.30;;;;;;6225584;28;89977;-70
2023/10/11 09:19:05;;;;;;;9.18;5.97;;;24.10;98.30;;;;;;6225798;28;89125;-70
2023/10/11 09:22:18;;;;;;;7.93;6.45;;;24.10;98.20;;;;;;6216426;28;89285;-70
2023/10/11 09:25:33;;;;;;;6.68;5.32;;;24.10;98.30;;;;;;6211339;28;88929;-70
2023/10/11 09:28:40;;;;;;;7.93;5.72;;;24.10;98.20;;;;;;6212150;28;89017;-70
2023/10/11 09:31:57;;;;;;;7.68;6.10;;;24.10;98.20;;;;;;6215509;28;88590;-71
2023/10/11 09:34:59;;;;;;;8.27;6.20;;;24.10;98.20;;;;;;6220168;28;89768;-70
2023/10/11 09:38:01;;;;;;;7.22;5.90;;;24.10;98.20;;;;;;6208325;28;88729;-70
2023/10/11 09:41:09;;;;;;;6.95;5.90;;;24.10;98.20;;;;;;6216068;28;88872;-71
2023/10/11 09:44:11;;;;;;;8.43;6.15;;;24.20;98.20;;;;;;6223405;28;89431;-71
2023/10/11 09:47:17;;;;;;;7.40;5.70;;;24.20;98.20;;;;;;6229067;28;88859;-70
2023/10/11 09:50:19;;;;;;;7.13;5.80;;;24.20;98.20;;;;;;6229029;28;89064;-73
2023/10/11 09:53:21;;;;;;;7.75;5.75;;;24.10;98.20;;;;;;6210379;28;89022;-72
2023/10/11 09:56:45;;;;;;;6.78;6.00;;;24.20;98.20;;;;;;6217979;28;87871;-71
2023/10/11 09:59:59;;;;;;;7.20;5.88;;;24.20;98.20;;;;;;6212812;28;88776;-70
2023/10/11 10:03:01;;;;;;;6.47;5.43;;;24.20;98.20;;;;;;6224821;28;89840;-69
2023/10/11 10:06:07;;;;;;;7.10;5.60;;;24.20;98.10;;;;;;6219356;28;89021;-69
2023/10/11 10:09:24;;;;;;;7.38;5.78;;;24.20;98.10;;;;;;6212868;28;87583;-71
2023/10/11 10:12:32;;;;;;;8.02;5.63;;;24.20;98.10;;;;;;6216071;28;90768;-71
2023/10/11 10:15:49;;;;;;;7.85;5.70;;;24.20;98.20;;;;;;6226238;28;89054;-69
2023/10/11 10:19:24;;;;;;;7.28;5.45;;;24.20;98.20;;;;;;6204730;28;89977;-70
2023/10/11 10:22:27;;;;;;;6.15;5.18;;;24.20;98.20;;;;;;6220558;28;89017;-71
2023/10/11 10:25:30;;;;;;;7.00;5.53;;;24.20;98.20;;;;;;6214778;28;89005;-70
2023/10/11 10:28:57;;;;;;;7.10;5.80;;;24.20;98.20;;;;;;6213882;28;89217;-69
2023/10/11 10:32:08;;;;;;;7.65;5.82;;;24.20;98.20;;;;;;6217208;28;89140;-71
2023/10/11 10:35:36;;;;;;;7.07;5.20;;;24.20;98.20;;;;;;6212338;28;88963;-70
2023/10/11 10:39:36;;;;;;;8.38;5.07;;;24.20;98.20;;;;;;6217167;28;88217;-70
2023/10/11 10:42:35;;;;;;;7.70;5.70;;;24.30;98.10;;;;;;6218615;28;86825;-70
2023/10/11 10:45:38;;;;;;;6.55;4.93;;;24.20;98.00;;;;;;6212515;28;88960;-70
2023/10/11 10:48:40;;;;;;;7.38;5.10;;;24.20;98.00;;;;;;6210296;28;87902;-70
2023/10/11 10:51:47;;;;;;;6.47;5.32;;;24.20;98.10;;;;;;6215040;28;90309;-70
2023/10/11 10:55:03;;;;;;;7.60;5.53;;;24.20;98.20;;;;;;6214993;28;87942;-70
2023/10/11 10:58:04;;;;;;;6.57;5.30;;;24.20;98.20;;;;;;6225564;28;88663;-71
2023/10/11 11:01:07;;;;;;;8.70;5.68;;;24.20;98.60;;;;;;6227266;28;88083;-70
2023/10/11 11:04:09;;;;;;;6.75;4.93;;;24.20;98.20;;;;;;6209066;28;88963;-71
2023/10/11 11:07:22;;;;;;;9.40;5.35;;;24.20;98.30;;;;;;6218321;28;89717;-71
2023/10/11 11:10:30;;;;;;;7.35;5.35;;;24.20;98.20;;;;;;6214697;28;89021;-71
2023/10/11 11:13:32;;;;;;;10.05;5.68;;;24.30;98.30;;;;;;6207838;28;88249;-70
2023/10/11 11:16:39;;;;;;;5.97;4.93;;;24.20;98.20;;;;;;6218872;28;88967;-70
2023/10/11 11:19:41;;;;;;;7.47;5.03;;;24.20;98.20;;;;;;6210239;28;89048;-71
2023/10/11 11:22:45;;;;;;;8.25;5.18;;;24.20;98.30;;;;;;6216928;28;89991;-71
2023/10/11 11:25:53;;;;;;;7.80;5.40;;;24.30;98.20;;;;;;6211615;28;89623;-71
2023/10/11 11:29:08;;;;;;;7.70;5.47;;;24.20;98.20;;;;;;6215478;28;89007;-71
2023/10/11 11:32:16;;;;;;;8.10;6.03;;;24.20;98.20;;;;;;6221269;28;88952;-71
2023/10/11 11:35:28;;;;;;;7.45;5.45;;;24.20;98.30;;;;;;6225330;28;89835;-70
2023/10/11 11:38:36;;;;;;;7.95;5.47;;;24.20;98.40;;;;;;6225291;28;89415;-71
2023/10/11 11:41:39;;;;;;;7.40;5.15;;;24.20;98.40;;;;;;6211005;28;89213;-71
2023/10/11 11:44:43;;;;;;;7.55;4.82;;;24.20;98.50;;;;;;6209062;28;87904;-72
2023/10/11 11:47:55;;;;;;;7.05;5.10;;;24.20;98.60;;;;;;6216566;28;88852;-71
2023/10/11 11:50:57;;;;;;;6.47;4.63;;;24.20;98.80;;;;;;6225131;28;88947;-71
2023/10/11 11:53:59;;;;;;;6.55;5.10;;;24.20;98.90;;;;;;6215806;28;90051;-70
2023/10/11 11:57:04;;;;;;;5.85;4.68;;;24.10;99.00;;;;;;6212815;28;89486;-70
2023/10/11 12:00:28;;;;;;;6.97;5.07;;;24.10;99.00;;;;;;6208787;28;87911;-70
2023/10/11 12:03:36;;;;;;;6.28;5.20;;;24.10;99.00;;;;;;6210793;28;89075;-71
2023/10/11 12:06:38;;;;;;;6.25;4.85;;;24.10;99.00;;;;;;6210408;28;89094;-70
2023/10/11 12:09:40;;;;;;;6.13;4.95;;;24.10;98.80;;;;;;6211326;28;89070;-71
2023/10/11 12:12:44;;;;;;;6.90;5.20;;;24.10;98.80;;;;;;6222106;28;88249;-70
2023/10/11 12:15:47;;;;;;;8.60;5.68;;;24.10;98.90;;;;;;6228121;28;88496;-70
2023/10/11 12:18:50;;;;;;;7.95;5.18;;;24.10;99.00;;;;;;6219314;28;88875;-70
2023/10/11 12:21:57;;;;;;;7.18;5.00;;;24.10;99.00;;;;;;6228483;28;87996;-71
2023/10/11 12:24:59;;;;;;;7.85;5.10;;;24.10;99.10;;;;;;6208355;28;90485;-70
2023/10/11 12:28:04;;;;;;;5.88;4.85;;;24.10;99.00;;;;;;6220344;28;89177;-70
2023/10/11 12:31:05;;;;;;;8.85;5.38;;;24.10;99.00;;;;;;6209494;28;88982;-70
2023/10/11 12:34:10;;;;;;;6.38;4.78;;;24.00;99.00;;;;;;6224821;28;89000;-70
2023/10/11 12:37:14;;;;;;;7.00;4.88;;;24.10;99.00;;;;;;6218855;28;89315;-70
2023/10/11 12:40:23;;;;;;;6.90;5.10;;;24.00;99.10;;;;;;6217712;28;89004;-71
2023/10/11 12:43:25;;;;;;;6.18;4.80;;;24.10;99.20;;;;;;6212977;28;89129;-70
2023/10/11 12:46:27;;;;;;;5.97;4.60;;;24.00;99.20;;;;;;6217017;28;88728;-70
2023/10/11 12:49:30;;;;;;;7.22;4.85;;;24.10;99.30;;;;;;6211333;28;89099;-70
2023/10/11 12:52:32;;;;;;;7.47;4.93;;;24.10;99.40;;;;;;6215027;28;89298;-71
2023/10/11 12:55:34;;;;;;;6.10;4.80;;;24.10;99.40;;;;;;6205914;28;88875;-70
2023/10/11 12:58:40;;;;;;;7.47;5.20;;;24.10;99.30;;;;;;6212197;28;89210;-70
2023/10/11 13:01:49;;;;;;;8.73;5.10;;;24.00;99.20;;;;;;6221473;28;89045;-70
2023/10/11 13:04:55;;;;;;;8.60;4.70;;;24.10;99.10;;;;;;6223566;28;89369;-70
2023/10/11 13:07:57;;;;;;;8.07;5.18;;;24.00;99.10;;;;;;6226704;28;89106;-70
2023/10/11 13:11:00;;;;;;;6.93;4.82;;;24.10;99.10;;;;;;6232868;28;88458;-71
2023/10/11 13:14:05;;;;;;;6.75;4.80;;;24.00;99.10;;;;;;6213447;28;89105;-70
2023/10/11 13:17:08;;;;;;;6.90;4.63;;;24.00;99.10;;;;;;6227162;28;87641;-70
2023/10/11 13:20:18;;;;;;;7.28;4.82;;;24.00;99.10;;;;;;6210009;28;89096;-72
2023/10/11 13:23:28;;;;;;;9.57;5.25;;;24.00;99.40;;;;;;6227159;28;88841;-71
2023/10/11 13:26:32;;;;;;;8.15;4.90;;;24.00;99.50;;;;;;6206304;28;89824;-72
2023/10/11 13:29:36;;;;;;;5.95;4.43;;;24.00;99.50;;;;;;6216421;28;89366;-69
2023/10/11 13:32:38;;;;;;;6.22;4.40;;;24.00;99.60;;;;;;6209853;28;89096;-70
2023/10/11 13:35:41;;;;;;;6.30;4.50;;;24.00;99.60;;;;;;6211137;28;89078;-70
2023/10/11 13:38:45;;;;;;;6.82;4.82;;;24.00;99.60;;;;;;6215007;28;89014;-70
2023/10/11 13:41:48;;;;;;;6.32;5.00;;;24.00;99.60;;;;;;6207390;28;89544;-70
2023/10/11 13:44:54;;;;;;;5.93;4.55;;;24.00;99.70;;;;;;6211214;28;89116;-70
2023/10/11 13:47:57;;;;;;;8.90;5.38;;;24.00;99.70;;;;;;6219830;28;88256;-70
2023/10/11 13:51:03;;;;;;;7.30;4.65;;;24.00;99.60;;;;;;6219131;28;89386;-70
2023/10/11 13:54:18;;;;;;;7.70;4.90;;;24.00;99.60;;;;;;6218448;28;88698;-70
2023/10/11 13:57:21;;;;;;;8.15;4.50;;;24.00;99.60;;;;;;6213482;28;90077;-70
2023/10/11 14:03:49;;;;;;;7.03;4.53;;;23.90;99.70;;;;;;6224935;28;87196;-70
2023/10/11 14:07:11;;;;;;;8.25;5.30;;;24.00;99.70;;;;;;6215541;28;89338;-71
2023/10/11 14:10:16;;;;;;;8.52;5.60;;;23.90;99.90;;;;;;6217927;28;89434;-71
2023/10/11 14:13:24;;;;;;;6.38;5.07;;;23.90;99.90;;;;;;6217189;28;89350;-71
2023/10/11 14:16:27;;;;;;;7.88;5.93;;;23.90;99.90;;;;;;6219861;28;89193;-70
2023/10/11 14:19:33;;;;;;;9.10;5.80;;;23.90;99.90;;;;;;6210587;28;87190;-70
2023/10/11 14:22:36;;;;;;;11.00;6.05;;;23.90;99.90;;;;;;6216472;28;89588;-70
2023/10/11 14:25:41;;;;;;;14.55;6.85;;;24.00;99.90;;;;;;6212749;28;89038;-70
2023/10/11 14:28:44;;;;;;;13.55;6.78;;;24.00;99.90;;;;;;6217056;28;90079;-69
2023/10/11 14:31:46;;;;;;;12.27;6.80;;;23.90;99.90;;;;;;6220487;28;88307;-68
2023/10/11 14:34:48;;;;;;;11.00;6.55;;;24.00;99.90;;;;;;6219532;28;89447;-70
2023/10/11 14:37:51;;;;;;;13.70;6.82;;;24.00;99.90;;;;;;6227588;28;89896;-69
2023/10/11 14:40:53;;;;;;;12.75;6.80;;;24.00;99.90;;;;;;6221880;28;89256;-70
2023/10/11 14:43:59;;;;;;;13.48;6.65;;;24.00;99.90;;;;;;6219989;28;89186;-71
2023/10/11 14:47:01;;;;;;;16.10;6.60;;;23.90;99.90;;;;;;6216108;28;87955;-71
2023/10/11 14:50:04;;;;;;;14.57;7.07;;;24.00;99.90;;;;;;6207334;28;88264;-70
2023/10/11 14:53:12;;;;;;;12.52;6.70;;;23.90;99.90;;;;;;6209682;28;87888;-69
2023/10/11 14:56:14;;;;;;;11.70;6.57;;;23.90;99.90;;;;;;6207349;28;88889;-69
2023/10/11 14:59:16;;;;;;;14.45;7.10;;;23.90;99.90;;;;;;6216005;28;88881;-70
2023/10/11 15:02:18;;;;;;;13.52;6.97;;;23.90;99.90;;;;;;6217480;28;89201;-68
2023/10/11 15:05:21;;;;;;;11.98;6.80;;;23.90;99.90;;;;;;6218192;28;89178;-69
2023/10/11 15:08:24;;;;;;;14.88;6.65;;;23.90;99.90;;;;;;6230272;28;91781;-70
2023/10/11 15:11:26;;;;;;;16.98;6.95;;;23.90;99.90;;;;;;6229054;28;89064;-70
2023/10/11 15:14:28;;;;;;;14.48;6.95;;;23.90;99.90;;;;;;6222227;28;89416;-69
2023/10/11 15:17:31;;;;;;;12.82;6.95;;;23.90;99.90;;;;;;6213205;28;87958;-69
2023/10/11 15:20:33;;;;;;;13.30;6.70;;;23.90;99.90;;;;;;6207241;28;88266;-69
2023/10/11 15:23:36;;;;;;;12.80;6.80;;;23.90;99.90;;;;;;6224387;28;89048;-69
2023/10/11 15:26:39;;;;;;;15.82;7.13;;;23.90;99.90;;;;;;6217823;28;89166;-69
2023/10/11 15:29:41;;;;;;;14.10;7.13;;;23.90;99.90;;;;;;6211880;28;90628;-69
2023/10/11 15:32:43;;;;;;;15.00;6.93;;;23.90;99.90;;;;;;6222320;28;88078;-69
2023/10/11 15:35:52;;;;;;;13.73;6.80;;;23.90;99.90;;;;;;6228344;28;89268;-70
2023/10/11 15:38:55;;;;;;;15.18;7.05;;;23.90;99.90;;;;;;6225518;28;88943;-69
2023/10/11 15:41:57;;;;;;;14.48;6.85;;;23.90;99.90;;;;;;6217997;28;89043;-69
2023/10/11 15:44:59;;;;;;;12.70;6.40;;;23.90;99.90;;;;;;6214104;28;89125;-68
2023/10/11 15:48:03;;;;;;;13.15;6.28;;;23.90;99.90;;;;;;6225931;28;89410;-69
2023/10/11 15:51:08;;;;;;;15.15;7.07;;;23.90;99.90;;;;;;6215986;28;88390;-69
2023/10/11 15:54:12;;;;;;;14.00;6.85;;;23.90;99.90;;;;;;6219757;28;89006;-69
2023/10/11 15:57:14;;;;;;;12.65;7.05;;;23.90;99.90;;;;;;6216234;28;89057;-69
2023/10/11 16:00:19;;;;;;;13.40;6.47;;;23.90;99.90;;;;;;6220326;28;90266;-69
2023/10/11 16:03:23;;;;;;;14.02;6.80;;;23.90;99.90;;;;;;6218284;28;89510;-69
2023/10/11 16:06:25;;;;;;;12.23;6.40;;;23.90;99.90;;;;;;6211904;28;87928;-69
2023/10/11 16:09:30;;;;;;;11.38;6.30;;;23.90;99.90;;;;;;6228860;28;89165;-69
2023/10/11 16:12:32;;;;;;;13.77;6.18;;;23.80;99.90;;;;;;6219098;28;89248;-69
2023/10/11 16:15:34;;;;;;;12.10;5.88;;;23.80;99.90;;;;;;6228088;28;87955;-69
2023/10/11 16:18:37;;;;;;;12.55;6.00;;;23.90;99.90;;;;;;6230669;28;88962;-68
2023/10/11 16:21:40;;;;;;;13.07;6.25;;;23.90;99.90;;;;;;6212949;28;88748;-70
2023/10/11 16:24:44;;;;;;;11.05;6.00;;;23.80;99.90;;;;;;6214858;28;87953;-69
2023/10/11 16:27:47;;;;;;;10.27;5.93;;;23.90;99.90;;;;;;6231891;28;89040;-69
2023/10/11 16:30:53;;;;;;;13.02;6.50;;;23.80;99.90;;;;;;6210337;28;90102;-69